Time;durP1;ratioP1;P1;durP2;ratioP2;P2;SDS_P1;SDS_P2;PMS_P1;PMS_P2;Temp;Humidity;BMP_temperature;BMP_pressure;BME280_temperature;BME280_humidity;BME280_pressure;Samples;Min_cycle;Max_cycle;Signal;HPM_P1;HPM_P2
2022/07/24 00:01:03;;;;;;;5.32;2.20;;;11.30;64.40;;;;;;4157586;28;20033;-82
2022/07/24 00:03:04;;;;;;;3.10;2.28;;;11.30;64.40;;;;;;4172249;28;20094;-82
2022/07/24 00:05:05;;;;;;;4.13;2.03;;;11.30;64.50;;;;;;4164193;28;20067;-82
2022/07/24 00:07:06;;;;;;;4.57;1.80;;;11.30;64.60;;;;;;4162594;28;20095;-81
2022/07/24 00:09:06;;;;;;;4.70;2.22;;;11.30;64.60;;;;;;4161372;28;20047;-81
2022/07/24 00:11:07;;;;;;;3.08;1.60;;;11.30;64.70;;;;;;4163317;28;20037;-82
2022/07/24 00:13:08;;;;;;;2.35;1.63;;;11.30;64.70;;;;;;4164520;28;20605;-81
2022/07/24 00:15:09;;;;;;;4.85;1.73;;;11.20;64.70;;;;;;4157414;28;20028;-82
2022/07/24 00:17:10;;;;;;;4.00;1.90;;;11.20;64.80;;;;;;4166495;28;20036;-81
2022/07/24 00:19:10;;;;;;;4.13;1.90;;;11.20;64.80;;;;;;4147381;28;20053;-82
2022/07/24 00:21:11;;;;;;;2.65;1.60;;;11.20;64.90;;;;;;4159355;28;20044;-82
2022/07/24 00:23:12;;;;;;;5.43;1.80;;;11.10;64.80;;;;;;4157466;28;20791;-81
2022/07/24 00:25:13;;;;;;;3.58;1.75;;;11.20;64.90;;;;;;4162145;28;20033;-81
2022/07/24 00:27:13;;;;;;;2.42;1.40;;;11.10;64.80;;;;;;4156038;28;20029;-81
2022/07/24 00:29:14;;;;;;;2.17;1.33;;;11.10;64.70;;;;;;4159544;28;20036;-82
2022/07/24 00:31:15;;;;;;;2.95;2.03;;;11.10;64.80;;;;;;4130552;28;20026;-81
2022/07/24 00:33:16;;;;;;;4.43;1.88;;;11.10;65.00;;;;;;4158191;28;20029;-82
2022/07/24 00:35:17;;;;;;;1.88;1.38;;;11.00;65.00;;;;;;4153815;28;20081;-82
2022/07/24 00:37:18;;;;;;;6.90;1.83;;;11.00;65.00;;;;;;4146226;28;20025;-82
2022/07/24 00:39:19;;;;;;;2.88;1.70;;;11.00;65.00;;;;;;4157306;28;20026;-82
2022/07/24 00:41:19;;;;;;;2.85;1.85;;;11.00;65.10;;;;;;4144624;28;20088;-82
2022/07/24 00:44:12;;;;;;;4.03;1.67;;;11.00;65.20;;;;;;4145586;28;20038;-81
2022/07/24 00:46:35;;;;;;;4.78;2.05;;;10.90;65.30;;;;;;4153518;28;20029;-81
2022/07/24 00:48:56;;;;;;;4.43;2.00;;;10.90;65.10;;;;;;4161765;28;20037;-81
2022/07/24 00:51:17;;;;;;;2.70;1.70;;;10.90;65.10;;;;;;4155351;28;20037;-81
2022/07/24 00:53:18;;;;;;;4.35;1.58;;;10.90;65.20;;;;;;4142792;28;20145;-81
2022/07/24 00:55:20;;;;;;;9.40;1.75;;;10.80;65.30;;;;;;4134954;28;21075;-81
2022/07/24 00:57:21;;;;;;;4.93;2.00;;;10.80;65.50;;;;;;4158798;28;20602;-81
2022/07/24 00:59:22;;;;;;;2.88;1.60;;;10.80;65.50;;;;;;4138599;28;20033;-81
2022/07/24 01:01:23;;;;;;;7.25;1.77;;;10.80;65.50;;;;;;4156899;28;20026;-81
2022/07/24 01:03:24;;;;;;;2.67;1.67;;;10.80;65.70;;;;;;4155449;28;20121;-82
2022/07/24 01:05:24;;;;;;;3.25;1.73;;;10.80;65.80;;;;;;4157760;28;20576;-81
2022/07/24 01:07:26;;;;;;;3.75;1.80;;;10.80;65.80;;;;;;4154329;28;20040;-81
2022/07/24 01:09:26;;;;;;;3.42;1.77;;;10.70;65.80;;;;;;4143179;28;20057;-81
2022/07/24 01:11:28;;;;;;;3.67;2.30;;;10.70;65.90;;;;;;4160234;28;20037;-81
2022/07/24 01:13:30;;;;;;;4.05;2.20;;;10.70;66.10;;;;;;4125796;28;20018;-81
2022/07/24 01:15:30;;;;;;;5.45;1.92;;;10.70;66.20;;;;;;4161455;28;20362;-82
2022/07/24 01:17:35;;;;;;;4.97;2.45;;;10.70;66.20;;;;;;4157335;28;20603;-81
2022/07/24 01:19:35;;;;;;;8.25;2.30;;;10.60;66.30;;;;;;4154439;28;20108;-81
2022/07/24 01:21:36;;;;;;;4.03;2.38;;;10.60;66.30;;;;;;4149008;28;20053;-81
2022/07/24 01:23:37;;;;;;;5.25;2.50;;;10.70;66.50;;;;;;4145095;28;20033;-81
2022/07/24 01:25:38;;;;;;;4.18;2.60;;;10.60;66.60;;;;;;4151184;28;20029;-81
2022/07/24 01:27:39;;;;;;;4.85;2.92;;;10.60;66.80;;;;;;4130516;28;20032;-81
2022/07/24 01:29:39;;;;;;;4.75;2.92;;;10.60;66.90;;;;;;4154099;28;20025;-81
2022/07/24 01:31:40;;;;;;;7.68;3.03;;;10.60;67.00;;;;;;4146297;28;20033;-80
2022/07/24 01:33:41;;;;;;;6.63;3.20;;;10.60;67.30;;;;;;4159758;28;20049;-81
2022/07/24 01:35:43;;;;;;;5.63;2.75;;;10.60;68.20;;;;;;4145676;28;20772;-82
2022/07/24 01:37:44;;;;;;;7.85;3.17;;;10.60;67.40;;;;;;4156066;28;20037;-82
2022/07/24 01:39:47;;;;;;;5.18;2.63;;;10.60;67.50;;;;;;4142395;28;20116;-81
2022/07/24 01:41:48;;;;;;;6.25;2.67;;;10.60;67.60;;;;;;4151132;28;20152;-81
2022/07/24 01:43:49;;;;;;;7.63;2.95;;;10.60;67.70;;;;;;4149719;28;20037;-82
2022/07/24 01:45:51;;;;;;;6.35;3.45;;;10.60;67.80;;;;;;4134926;28;20117;-81
2022/07/24 01:47:52;;;;;;;3.97;2.45;;;10.60;68.50;;;;;;4139064;28;20060;-82
2022/07/24 01:49:53;;;;;;;3.63;2.40;;;10.60;67.80;;;;;;4149958;28;20060;-81
2022/07/24 01:51:54;;;;;;;5.32;2.83;;;10.60;67.90;;;;;;4148848;28;20032;-80
2022/07/24 01:54:15;;;;;;;4.35;2.35;;;10.60;67.90;;;;;;4155093;28;20029;-81
2022/07/24 01:56:35;;;;;;;4.97;2.67;;;10.60;67.90;;;;;;4156112;28;20078;-81
2022/07/24 01:58:39;;;;;;;3.70;2.55;;;10.60;67.90;;;;;;4138537;28;20251;-81
2022/07/24 02:00:59;;;;;;;5.85;3.00;;;10.60;67.80;;;;;;4160844;28;20061;-81
2022/07/24 02:03:21;;;;;;;7.47;3.13;;;10.60;67.70;;;;;;4157194;28;20057;-81
2022/07/24 02:05:41;;;;;;;3.60;2.40;;;10.50;67.60;;;;;;4147125;28;20146;-81
2022/07/24 02:07:57;;;;;;;6.73;2.77;;;10.50;67.60;;;;;;4127255;28;20030;-81
2022/07/24 02:10:18;;;;;;;4.72;2.33;;;10.50;67.70;;;;;;4158106;28;20296;-81
2022/07/24 02:12:39;;;;;;;4.53;2.38;;;10.50;67.80;;;;;;4161273;28;20088;-80
2022/07/24 02:15:00;;;;;;;4.10;2.33;;;10.50;67.70;;;;;;4165066;28;20037;-81
2022/07/24 02:17:20;;;;;;;5.22;2.40;;;10.50;67.80;;;;;;4160168;28;20025;-81
2022/07/24 02:19:41;;;;;;;6.43;2.38;;;10.50;67.80;;;;;;4160005;28;20025;-81
2022/07/24 02:22:03;;;;;;;4.57;2.33;;;10.50;67.90;;;;;;4159602;28;20054;-81
2022/07/24 02:24:23;;;;;;;5.78;2.70;;;10.50;67.90;;;;;;4159081;28;20084;-81
2022/07/24 02:26:44;;;;;;;5.15;2.30;;;10.40;67.80;;;;;;4142490;28;20025;-81
2022/07/24 02:29:05;;;;;;;5.07;2.63;;;10.40;67.60;;;;;;4159138;28;20099;-81
2022/07/24 02:31:25;;;;;;;4.57;2.30;;;10.40;67.60;;;;;;4152810;28;20106;-81
2022/07/24 02:33:46;;;;;;;7.18;2.72;;;10.40;67.70;;;;;;4154161;28;20037;-81
2022/07/24 02:36:07;;;;;;;6.07;3.10;;;10.40;67.60;;;;;;4158603;28;20029;-81
2022/07/24 02:38:28;;;;;;;8.10;3.15;;;10.40;67.70;;;;;;4157410;28;20050;-81
2022/07/24 02:40:48;;;;;;;7.20;3.20;;;10.40;67.70;;;;;;4153949;28;20194;-80
2022/07/24 02:43:09;;;;;;;6.18;3.45;;;10.30;67.60;;;;;;4153867;28;20030;-81
2022/07/24 02:45:30;;;;;;;9.43;2.95;;;10.30;67.60;;;;;;4152856;28;20031;-81
2022/07/24 02:47:56;;;;;;;6.22;2.97;;;10.30;67.60;;;;;;4161320;28;20062;-80
2022/07/24 02:50:17;;;;;;;6.07;3.08;;;10.30;67.60;;;;;;4155587;28;20037;-82
2022/07/24 02:52:38;;;;;;;6.85;3.20;;;10.30;67.60;;;;;;4153932;28;20025;-82
2022/07/24 02:54:59;;;;;;;5.07;3.05;;;10.30;67.70;;;;;;4157447;28;20029;-82
2022/07/24 02:57:19;;;;;;;7.63;3.35;;;10.20;68.50;;;;;;4158970;28;20052;-82
2022/07/24 02:59:40;;;;;;;6.35;3.63;;;10.20;67.80;;;;;;4159357;28;20033;-81
2022/07/24 03:02:00;;;;;;;6.28;3.65;;;10.20;67.80;;;;;;4166695;28;20041;-81
2022/07/24 03:04:21;;;;;;;6.80;3.35;;;10.20;67.90;;;;;;4167611;28;20045;-81
2022/07/24 03:06:42;;;;;;;5.82;3.47;;;10.20;67.90;;;;;;4166543;28;20125;-82
2022/07/24 03:09:03;;;;;;;10.55;3.45;;;10.20;67.90;;;;;;4162274;28;20057;-81
2022/07/24 03:11:23;;;;;;;8.95;3.95;;;10.20;68.00;;;;;;4154698;28;20052;-81
2022/07/24 03:13:44;;;;;;;5.00;3.38;;;10.20;68.20;;;;;;4157456;28;20033;-81
2022/07/24 03:16:05;;;;;;;5.88;3.65;;;10.20;68.10;;;;;;4162619;28;20495;-81
2022/07/24 03:18:26;;;;;;;6.40;3.65;;;10.20;68.20;;;;;;4164450;28;20054;-81
2022/07/24 03:20:47;;;;;;;5.03;3.28;;;10.10;68.20;;;;;;4146994;28;20101;-81
2022/07/24 03:23:07;;;;;;;6.55;3.28;;;10.10;68.30;;;;;;4155211;28;20033;-81
2022/07/24 03:25:28;;;;;;;7.82;3.55;;;10.10;68.40;;;;;;4164655;28;20040;-81
2022/07/24 03:27:49;;;;;;;6.20;3.53;;;10.10;68.60;;;;;;4162401;28;20162;-81
2022/07/24 03:30:10;;;;;;;5.70;3.60;;;10.10;68.80;;;;;;4160090;28;20040;-81
2022/07/24 03:32:31;;;;;;;6.25;3.30;;;10.10;68.90;;;;;;4166380;28;20022;-81
2022/07/24 03:34:52;;;;;;;7.65;3.65;;;10.10;69.00;;;;;;4159739;28;20031;-81
2022/07/24 03:37:12;;;;;;;7.13;3.42;;;10.10;69.20;;;;;;4168454;28;20056;-81
2022/07/24 03:39:33;;;;;;;4.75;3.10;;;10.10;69.30;;;;;;4163150;28;20057;-81
2022/07/24 03:41:54;;;;;;;4.93;2.83;;;10.10;69.30;;;;;;4148581;28;20425;-81
2022/07/24 03:44:15;;;;;;;5.82;3.28;;;10.10;69.40;;;;;;4162596;28;20128;-81
2022/07/24 03:46:35;;;;;;;6.03;3.08;;;10.10;69.40;;;;;;4163348;28;20451;-81
2022/07/24 03:48:56;;;;;;;4.80;2.88;;;10.10;69.50;;;;;;4162773;28;20025;-81
2022/07/24 03:51:17;;;;;;;5.53;3.05;;;10.10;69.60;;;;;;4165592;28;20041;-81
2022/07/24 03:53:36;;;;;;;7.40;3.35;;;10.20;69.70;;;;;;4162878;28;20045;-81
2022/07/24 03:55:56;;;;;;;7.00;3.58;;;10.20;69.60;;;;;;4157639;28;21433;-80
2022/07/24 03:58:15;;;;;;;6.97;3.58;;;10.20;69.70;;;;;;4163066;28;20808;-81
2022/07/24 04:00:34;;;;;;;5.68;3.00;;;10.20;70.60;;;;;;4162678;28;20068;-81
2022/07/24 04:02:53;;;;;;;4.97;3.20;;;10.20;70.00;;;;;;4163329;28;20036;-81
2022/07/24 04:05:13;;;;;;;6.45;3.30;;;10.30;70.30;;;;;;4159504;28;20039;-81
2022/07/24 04:07:33;;;;;;;7.95;3.38;;;10.30;70.70;;;;;;4148977;28;20113;-81
2022/07/24 04:09:52;;;;;;;6.97;3.78;;;10.30;71.00;;;;;;4154717;28;20056;-81
2022/07/24 04:12:11;;;;;;;8.07;4.22;;;10.40;71.40;;;;;;4159804;28;20059;-81
2022/07/24 04:14:30;;;;;;;6.55;4.15;;;10.40;71.90;;;;;;4159648;28;20039;-81
2022/07/24 04:16:49;;;;;;;6.70;3.92;;;10.50;72.40;;;;;;4158051;28;20040;-81
2022/07/24 04:19:08;;;;;;;6.28;4.05;;;10.60;72.90;;;;;;4161553;28;20082;-81
2022/07/24 04:21:28;;;;;;;8.25;4.63;;;10.70;73.40;;;;;;4155858;28;20051;-81
2022/07/24 04:23:48;;;;;;;6.72;4.72;;;10.80;73.80;;;;;;4156715;28;20119;-81
2022/07/24 04:26:07;;;;;;;7.25;4.13;;;10.90;74.20;;;;;;4160307;28;20565;-81
2022/07/24 04:28:27;;;;;;;9.32;4.75;;;11.00;74.70;;;;;;4157282;28;20045;-81
2022/07/24 04:30:46;;;;;;;7.95;4.82;;;11.10;74.80;;;;;;4157721;28;20064;-81
2022/07/24 04:33:05;;;;;;;8.05;4.30;;;11.20;75.00;;;;;;4158642;28;20041;-81
2022/07/24 04:35:24;;;;;;;8.32;4.35;;;11.30;75.20;;;;;;4157798;28;20520;-81
2022/07/24 04:37:43;;;;;;;8.93;4.57;;;11.50;75.50;;;;;;4167083;28;20040;-81
2022/07/24 04:40:03;;;;;;;6.35;3.58;;;11.60;75.70;;;;;;4156538;28;20060;-81
2022/07/24 04:42:23;;;;;;;8.10;3.58;;;11.70;75.80;;;;;;4161772;28;20036;-81
2022/07/24 04:44:42;;;;;;;7.00;3.53;;;11.80;75.70;;;;;;4150422;28;20046;-81
2022/07/24 04:47:01;;;;;;;4.35;3.13;;;12.00;75.80;;;;;;4159649;28;20133;-81
2022/07/24 04:49:20;;;;;;;6.22;2.88;;;12.00;75.50;;;;;;4160115;28;20041;-80
2022/07/24 04:51:39;;;;;;;5.00;3.25;;;12.20;75.40;;;;;;4162118;28;20082;-81
2022/07/24 04:53:58;;;;;;;5.20;2.95;;;12.30;75.50;;;;;;4157200;28;20113;-80
2022/07/24 04:56:18;;;;;;;6.15;3.25;;;12.40;75.60;;;;;;4161338;28;20028;-81
2022/07/24 04:58:38;;;;;;;7.70;3.05;;;12.60;75.70;;;;;;4155899;28;20620;-81
2022/07/24 05:00:57;;;;;;;6.65;2.90;;;12.70;75.70;;;;;;4157139;28;20120;-81
2022/07/24 05:03:16;;;;;;;6.10;2.60;;;12.90;76.00;;;;;;4160233;28;20098;-80
2022/07/24 05:05:35;;;;;;;7.22;2.97;;;13.00;75.70;;;;;;4161866;28;20093;-80
2022/07/24 05:07:55;;;;;;;7.85;2.90;;;13.10;75.10;;;;;;4157322;28;20039;-80
2022/07/24 05:10:14;;;;;;;3.75;2.50;;;13.20;74.40;;;;;;4168013;28;20504;-81
2022/07/24 05:12:33;;;;;;;8.52;2.88;;;13.30;74.10;;;;;;4166423;28;20044;-81
2022/07/24 05:14:53;;;;;;;6.03;2.75;;;13.40;73.70;;;;;;4166988;28;20048;-81
2022/07/24 05:17:12;;;;;;;4.72;2.80;;;13.50;73.30;;;;;;4161486;28;20040;-81
2022/07/24 05:19:31;;;;;;;5.68;2.78;;;13.60;73.00;;;;;;4166624;28;20120;-81
2022/07/24 05:21:50;;;;;;;4.57;2.67;;;13.60;72.70;;;;;;4166961;28;21316;-81
2022/07/24 05:24:09;;;;;;;9.30;2.67;;;13.70;72.50;;;;;;4164817;28;20099;-81
2022/07/24 05:26:31;;;;;;;3.88;2.38;;;13.80;72.20;;;;;;4164057;28;20062;-82
2022/07/24 05:28:50;;;;;;;4.45;2.55;;;13.80;72.00;;;;;;4164058;28;20124;-81
2022/07/24 05:31:09;;;;;;;7.90;2.60;;;13.90;71.80;;;;;;4163192;28;20047;-81
2022/07/24 05:33:28;;;;;;;7.78;2.47;;;13.90;71.60;;;;;;4163142;28;20052;-82
2022/07/24 05:35:47;;;;;;;5.18;2.55;;;14.00;71.50;;;;;;4165486;28;20091;-81
2022/07/24 05:38:06;;;;;;;4.43;2.60;;;14.00;71.30;;;;;;4158610;28;20036;-81
2022/07/24 05:40:26;;;;;;;8.55;2.60;;;14.10;71.20;;;;;;4144094;28;20048;-81
2022/07/24 05:42:45;;;;;;;5.25;2.60;;;14.10;71.00;;;;;;4162857;28;20043;-81
2022/07/24 05:45:05;;;;;;;6.60;2.25;;;14.20;70.80;;;;;;4147270;28;20083;-81
2022/07/24 05:47:25;;;;;;;6.32;2.70;;;14.20;70.70;;;;;;4144630;28;20040;-81
2022/07/24 05:49:44;;;;;;;6.28;2.45;;;14.30;70.60;;;;;;4174136;28;20850;-81
2022/07/24 05:52:04;;;;;;;5.18;2.25;;;14.40;70.50;;;;;;4179163;28;20035;-80
2022/07/24 05:54:23;;;;;;;5.60;2.45;;;14.40;70.40;;;;;;4182740;28;20043;-81
2022/07/24 05:56:43;;;;;;;7.25;2.58;;;14.40;70.20;;;;;;4181671;28;20183;-81
2022/07/24 05:59:02;;;;;;;5.10;2.90;;;14.50;70.30;;;;;;4181260;28;20413;-81
2022/07/24 06:01:22;;;;;;;6.07;2.67;;;14.50;70.20;;;;;;4174501;28;20668;-81
2022/07/24 06:03:41;;;;;;;5.85;2.60;;;14.60;70.10;;;;;;4181842;28;20115;-80
2022/07/24 06:06:00;;;;;;;7.93;2.50;;;14.60;69.90;;;;;;4176752;28;20404;-82
2022/07/24 06:08:19;;;;;;;5.65;2.30;;;14.70;69.80;;;;;;4181143;28;20245;-81
2022/07/24 06:10:38;;;;;;;6.18;2.35;;;14.80;69.60;;;;;;4171999;28;20039;-80
2022/07/24 06:12:58;;;;;;;3.55;2.53;;;14.80;69.40;;;;;;4180762;28;20163;-81
2022/07/24 06:15:17;;;;;;;3.60;2.50;;;14.90;69.30;;;;;;4175993;28;20070;-80
2022/07/24 06:17:36;;;;;;;8.18;2.72;;;15.00;69.10;;;;;;4181399;28;20316;-81
2022/07/24 06:19:55;;;;;;;5.03;2.67;;;15.10;69.00;;;;;;4172059;28;20040;-81
2022/07/24 06:22:15;;;;;;;4.60;2.22;;;15.10;68.70;;;;;;4180731;28;20040;-80
2022/07/24 06:24:34;;;;;;;3.92;2.38;;;15.20;68.50;;;;;;4184457;28;20134;-82
2022/07/24 06:26:53;;;;;;;4.07;2.08;;;15.20;68.30;;;;;;4178284;28;20052;-80
2022/07/24 06:29:12;;;;;;;3.65;2.05;;;15.30;68.10;;;;;;4179035;28;20044;-81
2022/07/24 06:31:31;;;;;;;4.28;1.90;;;15.30;68.00;;;;;;4173773;28;20110;-81
2022/07/24 06:33:50;;;;;;;5.75;2.10;;;15.40;67.80;;;;;;4181418;28;20039;-80
2022/07/24 06:36:09;;;;;;;4.32;2.10;;;15.40;67.60;;;;;;4178691;28;20059;-81
2022/07/24 06:38:29;;;;;;;3.47;2.00;;;15.50;67.50;;;;;;4167479;28;20480;-80
2022/07/24 06:40:49;;;;;;;2.20;1.73;;;15.50;67.30;;;;;;4174923;28;20468;-81
2022/07/24 06:43:09;;;;;;;4.20;1.90;;;15.60;67.20;;;;;;4174895;28;20036;-80
2022/07/24 06:45:32;;;;;;;4.10;1.70;;;15.70;67.00;;;;;;4166715;28;20178;-80
2022/07/24 06:47:51;;;;;;;2.75;1.52;;;15.70;66.90;;;;;;4172056;28;20291;-81
2022/07/24 06:50:12;;;;;;;4.22;2.08;;;15.80;66.50;;;;;;4166051;28;20059;-81
2022/07/24 06:52:32;;;;;;;6.65;1.73;;;15.80;66.50;;;;;;4175534;28;20040;-81
2022/07/24 06:54:51;;;;;;;3.88;1.40;;;15.90;66.40;;;;;;4161439;28;22210;-81
2022/07/24 06:57:10;;;;;;;9.35;1.95;;;16.00;66.20;;;;;;4173500;28;20095;-81
2022/07/24 06:59:30;;;;;;;2.88;1.45;;;16.10;65.80;;;;;;4172212;28;20535;-81
2022/07/24 07:01:49;;;;;;;3.65;1.52;;;16.10;65.80;;;;;;4172274;28;20542;-80
2022/07/24 07:04:08;;;;;;;2.42;1.30;;;16.20;65.60;;;;;;4159817;28;20131;-81
2022/07/24 07:06:27;;;;;;;5.80;1.55;;;16.30;65.50;;;;;;4174086;28;20047;-81
2022/07/24 07:08:46;;;;;;;2.67;1.40;;;16.30;65.20;;;;;;4174648;28;21191;-81
2022/07/24 07:11:05;;;;;;;3.08;1.30;;;16.40;64.90;;;;;;4168528;28;20039;-82
2022/07/24 07:13:24;;;;;;;2.10;1.25;;;16.40;64.40;;;;;;4172018;28;20050;-81
2022/07/24 07:15:43;;;;;;;2.20;1.10;;;16.60;64.50;;;;;;4173627;28;20578;-81
2022/07/24 07:18:02;;;;;;;2.28;1.20;;;16.60;64.50;;;;;;4171372;28;20048;-81
2022/07/24 07:20:22;;;;;;;2.10;1.20;;;16.70;64.50;;;;;;4174008;28;20404;-81
2022/07/24 07:22:42;;;;;;;1.67;1.10;;;16.80;64.40;;;;;;4173167;28;20044;-81
2022/07/24 07:25:01;;;;;;;3.45;1.35;;;16.90;64.10;;;;;;4176424;28;20507;-80
2022/07/24 07:27:20;;;;;;;3.42;1.30;;;17.00;63.90;;;;;;4161558;28;20075;-81
2022/07/24 07:29:40;;;;;;;4.28;1.45;;;17.10;63.70;;;;;;4178198;28;21882;-82
2022/07/24 07:31:59;;;;;;;6.13;1.70;;;17.20;63.40;;;;;;4172572;28;20043;-80
2022/07/24 07:34:18;;;;;;;4.70;1.75;;;17.30;63.10;;;;;;4174866;28;20087;-81
2022/07/24 07:36:37;;;;;;;4.43;1.20;;;17.40;62.80;;;;;;4172508;28;20075;-82
2022/07/24 07:38:57;;;;;;;2.53;1.30;;;17.50;62.50;;;;;;4161848;28;20044;-82
2022/07/24 07:41:19;;;;;;;4.00;1.00;;;17.60;62.70;;;;;;4174381;28;20098;-82
2022/07/24 07:43:39;;;;;;;5.07;1.40;;;17.80;62.90;;;;;;4180587;28;20051;-82
2022/07/24 07:45:58;;;;;;;5.45;0.93;;;17.90;62.70;;;;;;4163930;28;20070;-81
2022/07/24 07:48:17;;;;;;;3.08;1.65;;;18.10;62.40;;;;;;4176893;28;20036;-81
2022/07/24 07:50:38;;;;;;;3.70;1.42;;;18.20;61.10;;;;;;4175233;28;20052;-82
2022/07/24 07:52:58;;;;;;;3.63;1.08;;;18.30;61.00;;;;;;4166335;28;20040;-81
2022/07/24 07:54:59;;;;;;;3.08;1.40;;;18.40;60.70;;;;;;4157025;28;20041;-80
2022/07/24 07:57:00;;;;;;;8.25;1.63;;;18.50;60.10;;;;;;4170313;28;20093;-82
2022/07/24 07:59:01;;;;;;;6.93;1.50;;;18.50;59.70;;;;;;4165941;28;20029;-81
2022/07/24 08:01:01;;;;;;;4.63;1.50;;;18.60;59.50;;;;;;4160710;28;20057;-81
2022/07/24 08:03:04;;;;;;;3.88;1.33;;;18.70;59.40;;;;;;4141105;28;21104;-80
2022/07/24 08:05:06;;;;;;;4.38;1.30;;;18.80;59.40;;;;;;4158530;28;20029;-81
2022/07/24 08:07:06;;;;;;;2.00;1.25;;;18.90;59.30;;;;;;4160579;28;20507;-82
2022/07/24 08:09:07;;;;;;;3.88;1.20;;;18.90;58.90;;;;;;4164720;28;20025;-81
2022/07/24 08:11:08;;;;;;;2.80;1.10;;;19.00;58.90;;;;;;4161629;28;20048;-81
2022/07/24 08:13:09;;;;;;;2.53;1.35;;;19.10;58.90;;;;;;4160375;28;20032;-82
2022/07/24 08:15:11;;;;;;;2.05;1.23;;;19.20;58.90;;;;;;4149222;28;20049;-82
2022/07/24 08:17:12;;;;;;;3.55;1.20;;;19.30;58.70;;;;;;4128762;28;20030;-82
2022/07/24 08:19:13;;;;;;;2.92;1.50;;;19.40;58.60;;;;;;4156891;28;20572;-82
2022/07/24 08:21:17;;;;;;;3.83;1.50;;;19.50;58.60;;;;;;4161012;28;20072;-82
2022/07/24 08:23:18;;;;;;;3.55;1.40;;;19.50;58.30;;;;;;4134445;28;20378;-81
2022/07/24 08:25:20;;;;;;;1.42;0.95;;;19.60;58.10;;;;;;4148548;28;20425;-82
2022/07/24 08:27:21;;;;;;;4.60;1.30;;;19.70;57.90;;;;;;4162304;28;20040;-82
2022/07/24 08:29:21;;;;;;;2.35;1.35;;;19.80;57.90;;;;;;4161806;28;20036;-83
2022/07/24 08:31:22;;;;;;;4.20;1.52;;;19.90;57.90;;;;;;4145204;28;20033;-81
2022/07/24 08:33:23;;;;;;;1.98;1.13;;;20.00;57.60;;;;;;4161448;28;20469;-82
2022/07/24 08:35:26;;;;;;;4.22;1.40;;;20.10;57.10;;;;;;4153640;28;20030;-82
2022/07/24 08:37:27;;;;;;;4.90;1.40;;;20.30;57.10;;;;;;4172850;28;20031;-82
2022/07/24 08:39:28;;;;;;;2.47;1.27;;;20.30;56.90;;;;;;4156995;28;20029;-81
2022/07/24 08:41:35;;;;;;;1.88;1.13;;;20.40;56.80;;;;;;4157156;28;20044;-82
2022/07/24 08:43:36;;;;;;;2.40;1.10;;;20.60;56.60;;;;;;4142387;28;20214;-82
2022/07/24 08:45:39;;;;;;;2.25;1.40;;;20.70;56.80;;;;;;4170887;28;20033;-81
2022/07/24 08:47:41;;;;;;;2.13;1.20;;;20.70;56.70;;;;;;4164934;28;20044;-81
2022/07/24 08:49:58;;;;;;;2.60;1.02;;;20.80;56.50;;;;;;4156296;28;20025;-81
2022/07/24 08:52:21;;;;;;;3.13;0.93;;;21.00;56.40;;;;;;4160379;28;20040;-82
2022/07/24 08:54:42;;;;;;;3.97;1.30;;;21.10;56.40;;;;;;4164883;28;20037;-81
2022/07/24 08:57:04;;;;;;;2.42;1.20;;;21.30;56.30;;;;;;4160347;28;20144;-82
2022/07/24 08:59:25;;;;;;;4.65;1.40;;;21.40;55.90;;;;;;4161503;28;20029;-81
2022/07/24 09:01:48;;;;;;;2.63;1.20;;;21.50;55.40;;;;;;4163814;28;20040;-83
2022/07/24 09:04:05;;;;;;;2.72;1.17;;;21.60;55.20;;;;;;4159662;28;20033;-83
2022/07/24 09:06:12;;;;;;;4.28;1.38;;;21.80;55.00;;;;;;4122602;28;20030;-81
2022/07/24 09:08:33;;;;;;;3.38;1.65;;;21.90;54.70;;;;;;4162081;28;20151;-81
2022/07/24 09:10:58;;;;;;;3.00;1.48;;;22.00;53.90;;;;;;4157176;28;20042;-81
2022/07/24 09:13:19;;;;;;;3.55;1.55;;;22.10;53.00;;;;;;4159358;28;20025;-82
2022/07/24 09:15:47;;;;;;;1.75;1.10;;;22.20;51.50;;;;;;4161518;28;20033;-81
2022/07/24 09:18:08;;;;;;;4.95;1.50;;;22.30;51.60;;;;;;4153523;28;20071;-82
2022/07/24 09:20:29;;;;;;;2.08;1.40;;;22.40;52.00;;;;;;4160463;28;20072;-83
2022/07/24 09:22:50;;;;;;;3.08;1.30;;;22.50;52.00;;;;;;4153533;28;20041;-83
2022/07/24 09:25:13;;;;;;;4.03;1.45;;;22.60;52.10;;;;;;4160291;28;20051;-84
2022/07/24 09:27:59;;;;;;;2.45;1.50;;;22.70;51.60;;;;;;4139486;28;20057;-82
2022/07/24 09:30:36;;;;;;;4.15;1.70;;;22.80;51.40;;;;;;4155927;28;20061;-82
2022/07/24 09:33:00;;;;;;;3.17;1.48;;;23.00;50.60;;;;;;4157168;28;20068;-83
2022/07/24 09:35:30;;;;;;;1.42;1.00;;;23.10;51.10;;;;;;4160677;28;20021;-83
2022/07/24 09:37:56;;;;;;;5.32;1.52;;;23.20;51.00;;;;;;4158246;28;20033;-82
2022/07/24 09:40:18;;;;;;;4.10;1.70;;;23.30;50.70;;;;;;4150613;28;20049;-83
2022/07/24 09:42:39;;;;;;;4.75;1.35;;;23.40;50.20;;;;;;4145168;28;20040;-83
2022/07/24 09:45:00;;;;;;;2.42;1.65;;;23.40;50.30;;;;;;4155554;28;20102;-82
2022/07/24 09:47:21;;;;;;;4.88;1.38;;;23.50;50.20;;;;;;4157428;28;20064;-83
2022/07/24 09:49:42;;;;;;;5.63;1.58;;;23.60;50.40;;;;;;4165502;28;20037;-83
2022/07/24 09:52:10;;;;;;;2.40;1.35;;;23.70;50.20;;;;;;4168283;28;20038;-83
2022/07/24 09:54:33;;;;;;;2.97;1.52;;;23.80;50.30;;;;;;4158360;28;20029;-82
2022/07/24 09:57:13;;;;;;;3.07;1.63;;;23.90;50.00;;;;;;4162760;28;20029;-82
2022/07/24 09:59:36;;;;;;;4.75;1.42;;;23.90;49.70;;;;;;4158293;28;20039;-83
2022/07/24 10:01:59;;;;;;;8.13;1.90;;;24.00;49.50;;;;;;4139458;28;20048;-82
2022/07/24 10:04:21;;;;;;;4.80;1.30;;;24.10;49.50;;;;;;4164609;28;20033;-83
2022/07/24 10:06:45;;;;;;;2.28;1.48;;;24.20;49.50;;;;;;4154586;28;20064;-83
2022/07/24 10:09:06;;;;;;;4.95;2.00;;;24.30;49.50;;;;;;4144512;28;20181;-82
2022/07/24 10:11:28;;;;;;;3.92;1.98;;;24.40;49.00;;;;;;4156919;28;20121;-82
2022/07/24 10:13:49;;;;;;;4.13;1.65;;;24.40;49.10;;;;;;4153107;28;20041;-82
2022/07/24 10:16:10;;;;;;;3.17;2.03;;;24.50;48.80;;;;;;4159496;28;20032;-83
2022/07/24 10:18:48;;;;;;;3.33;2.13;;;24.60;48.40;;;;;;4158241;28;20551;-83
2022/07/24 10:21:13;;;;;;;5.88;1.90;;;24.70;47.40;;;;;;4165062;28;20029;-82
2022/07/24 10:23:51;;;;;;;4.32;1.70;;;24.70;47.70;;;;;;4165269;28;20160;-83
2022/07/24 10:26:23;;;;;;;7.35;2.00;;;24.80;47.60;;;;;;4143459;28;20103;-84
2022/07/24 10:28:44;;;;;;;6.65;1.92;;;24.90;47.40;;;;;;4164211;28;20058;-83
2022/07/24 10:31:11;;;;;;;2.78;1.60;;;24.90;47.30;;;;;;4177977;28;20037;-83
2022/07/24 10:33:32;;;;;;;5.18;1.83;;;25.00;47.60;;;;;;4167478;28;20516;-83
2022/07/24 10:35:58;;;;;;;4.53;1.95;;;25.00;47.70;;;;;;4167510;28;20458;-82
2022/07/24 10:38:33;;;;;;;2.92;1.95;;;25.10;47.30;;;;;;4176600;28;20132;-83
2022/07/24 10:40:59;;;;;;;4.65;1.70;;;25.20;47.10;;;;;;4175088;28;20033;-84
2022/07/24 10:43:21;;;;;;;3.40;1.70;;;25.20;47.70;;;;;;4164378;28;20036;-82
2022/07/24 10:45:56;;;;;;;16.08;2.35;;;25.30;47.10;;;;;;4164036;28;20029;-83
2022/07/24 10:48:23;;;;;;;4.63;1.92;;;25.40;46.90;;;;;;4174524;28;20128;-82
2022/07/24 10:51:03;;;;;;;4.32;2.53;;;25.40;46.60;;;;;;4161469;28;20079;-83
2022/07/24 10:53:28;;;;;;;5.20;2.58;;;25.50;46.00;;;;;;4170270;28;20105;-84
2022/07/24 10:55:47;;;;;;;2.97;1.90;;;25.60;45.80;;;;;;4170378;28;20114;-83
2022/07/24 10:58:10;;;;;;;5.32;2.15;;;25.70;45.80;;;;;;4173904;28;20055;-84
2022/07/24 11:00:34;;;;;;;3.70;2.00;;;25.80;45.60;;;;;;4176228;28;20055;-84
2022/07/24 11:03:02;;;;;;;5.63;2.30;;;25.80;45.40;;;;;;4170917;28;20055;-83
2022/07/24 11:05:28;;;;;;;4.45;1.80;;;25.90;45.60;;;;;;4159979;28;20109;-83
2022/07/24 11:08:14;;;;;;;3.85;2.30;;;25.90;45.30;;;;;;4168083;28;20039;-84
2022/07/24 11:10:50;;;;;;;6.20;2.05;;;26.00;44.70;;;;;;4169558;28;20037;-84
2022/07/24 11:13:30;;;;;;;7.22;2.17;;;26.10;45.20;;;;;;4154285;28;20032;-83
2022/07/24 11:16:11;;;;;;;3.15;2.30;;;26.10;44.40;;;;;;4157685;28;20508;-80
2022/07/24 11:18:30;;;;;;;5.18;1.92;;;26.20;44.70;;;;;;4169842;28;20181;-82
2022/07/24 11:20:49;;;;;;;2.38;1.70;;;26.30;45.00;;;;;;4171810;28;20045;-82
2022/07/24 11:23:20;;;;;;;3.88;1.95;;;26.30;45.20;;;;;;4162167;28;20103;-82
2022/07/24 11:25:39;;;;;;;4.90;2.15;;;26.40;45.10;;;;;;4176805;28;20048;-82
2022/07/24 11:28:13;;;;;;;4.55;2.17;;;26.50;44.60;;;;;;4179322;28;20056;-82
2022/07/24 11:30:32;;;;;;;5.57;2.40;;;26.60;44.10;;;;;;4174541;28;20079;-83
2022/07/24 11:32:51;;;;;;;3.58;2.40;;;26.70;43.80;;;;;;4169626;28;20040;-83
2022/07/24 11:35:12;;;;;;;6.97;3.13;;;26.70;43.40;;;;;;4176728;28;20093;-82
2022/07/24 11:37:31;;;;;;;7.78;2.53;;;26.80;42.80;;;;;;4175320;28;20041;-82
2022/07/24 11:39:51;;;;;;;6.65;2.33;;;26.80;43.20;;;;;;4172939;28;20036;-82
2022/07/24 11:42:12;;;;;;;4.10;2.70;;;26.90;43.20;;;;;;4173530;28;20047;-81
2022/07/24 11:44:37;;;;;;;7.50;3.53;;;26.90;42.50;;;;;;4159229;28;20033;-80
2022/07/24 11:47:21;;;;;;;4.85;3.00;;;27.00;41.80;;;;;;4177712;28;20208;-82
2022/07/24 11:49:42;;;;;;;;;;;27.00;41.20;;;;;;4172720;28;20075;-83
2022/07/24 11:52:01;;;;;;;6.20;2.80;;;27.00;42.20;;;;;;4184700;28;19959;-83